TimeMST,TemperatureF,Dew PointF,Humidity,Sea Level PressureIn,VisibilityMPH,Wind Direction,Wind SpeedMPH,Gust SpeedMPH,PrecipitationIn,Events,Conditions,WindDirDegrees,DateUTC
12:53 AM,8.1,-2.0,64,30.15,10.0,SW,13.8,-,N/A,,Scattered Clouds,220,2012-12-10 07:53:00
1:53 AM,18.0,-0.0,45,30.09,10.0,West,15.0,32.2,N/A,,Mostly Cloudy,280,2012-12-10 08:53:00
2:53 AM,19.0,-0.9,42,30.05,10.0,West,20.7,34.5,N/A,,Mostly Cloudy,270,2012-12-10 09:53:00
3:53 AM,19.9,-0.9,40,30.01,10.0,West,34.5,43.7,N/A,,Overcast,280,2012-12-10 10:53:00
4:53 AM,19.9,-0.9,40,30.01,10.0,West,33.4,50.6,0.01,,Overcast,270,2012-12-10 11:53:00
5:53 AM,19.9,-0.0,42,29.99,10.0,West,29.9,41.4,N/A,,Partly Cloudy,280,2012-12-10 12:53:00
6:53 AM,19.9,1.9,46,30.01,10.0,WNW,26.5,39.1,N/A,,Mostly Cloudy,290,2012-12-10 13:53:00
7:53 AM,21.0,3.9,48,30.04,10.0,West,26.5,34.5,N/A,,Overcast,280,2012-12-10 14:53:00
8:53 AM,23.0,3.9,44,30.03,10.0,West,23.0,32.2,N/A,,Overcast,280,2012-12-10 15:53:00
9:53 AM,26.1,6.1,43,30.02,10.0,West,29.9,41.4,N/A,,Mostly Cloudy,280,2012-12-10 16:53:00
10:53 AM,28.0,6.1,39,30.01,10.0,WNW,25.3,34.5,N/A,,Overcast,290,2012-12-10 17:53:00
11:53 AM,30.0,5.0,35,29.97,10.0,WNW,25.3,36.8,N/A,,Clear,290,2012-12-10 18:53:00
12:53 PM,30.9,8.1,38,29.94,10.0,NW,18.4,34.5,N/A,,Clear,310,2012-12-10 19:53:00
1:53 PM,30.9,7.0,37,29.88,10.0,NW,21.9,34.5,N/A,,Mostly Cloudy,310,2012-12-10 20:53:00
2:53 PM,28.9,12.0,49,29.91,10.0,WNW,16.1,29.9,N/A,,Overcast,300,2012-12-10 21:53:00
3:53 PM,28.0,9.0,45,29.92,10.0,NNW,15.0,26.5,N/A,,Overcast,340,2012-12-10 22:53:00
4:53 PM,26.1,12.0,55,29.96,10.0,WNW,18.4,33.4,0.00,,Overcast,300,2012-12-10 23:53:00
5:53 PM,27.0,10.0,49,29.95,10.0,NW,16.1,25.3,N/A,,Overcast,310,2012-12-11 00:53:00
6:25 PM,24.8,15.8,69,29.83,2.5,NW,13.8,25.3,0.00,Snow,Light Snow,320,2012-12-11 01:25:00
6:38 PM,24.8,15.8,69,29.83,7.0,NNW,18.4,25.3,0.00,Snow,Light Snow,330,2012-12-11 01:38:00
6:53 PM,23.0,17.1,78,29.99,2.5,North,11.5,21.9,0.00,Snow,Light Snow,360,2012-12-11 01:53:00
7:02 PM,23.0,17.6,80,29.84,8.0,North,10.4,-,0.00,,Overcast,350,2012-12-11 02:02:00
7:49 PM,21.2,17.6,86,29.87,10.0,North,10.4,-,0.00,,Overcast,10,2012-12-11 02:49:00
7:53 PM,21.0,17.1,85,30.03,10.0,North,12.7,-,0.00,,Overcast,10,2012-12-11 02:53:00
8:31 PM,21.2,15.8,80,29.88,10.0,North,15.0,18.4,N/A,,Overcast,360,2012-12-11 03:31:00
8:53 PM,19.9,15.1,81,30.04,5.0,North,10.4,-,0.00,Snow,Light Snow,360,2012-12-11 03:53:00
9:51 PM,19.4,15.8,86,29.90,2.5,North,12.7,-,0.00,Snow,Light Snow,10,2012-12-11 04:51:00
9:53 PM,19.9,15.1,81,30.04,2.5,North,11.5,-,0.00,Snow,Light Snow,360,2012-12-11 04:53:00
10:00 PM,19.4,15.8,86,29.90,3.0,North,16.1,-,0.00,,Haze,10,2012-12-11 05:00:00
10:10 PM,19.4,15.8,86,29.90,2.5,North,10.4,18.4,0.00,Snow,Light Snow,360,2012-12-11 05:10:00
10:28 PM,19.4,15.8,86,29.91,3.0,North,11.5,-,0.00,Snow,Light Snow,360,2012-12-11 05:28:00
10:37 PM,19.4,15.8,86,29.91,2.5,North,10.4,-,0.00,Snow,Light Snow,350,2012-12-11 05:37:00
10:46 PM,19.4,15.8,86,29.91,3.0,North,9.2,-,0.00,Snow,Light Snow,350,2012-12-11 05:46:00
10:53 PM,19.0,15.1,85,30.04,3.0,NNW,10.4,-,0.00,Snow,Light Snow,340,2012-12-11 05:53:00
11:13 PM,17.6,12.2,79,29.91,10.0,North,8.1,-,N/A,,Scattered Clouds,350,2012-12-11 06:13:00
11:53 PM,14.0,10.0,84,30.07,10.0,West,5.8,-,0.00,,Partly Cloudy,270,2012-12-11 06:53:00